sensor_id;sensor_type;location;lat;lon;timestamp;P1;durP1;ratioP1;P2;durP2;ratioP2
32790;SDS011;19143;59.322;14.502;2023-04-03T00:02:05;2.23;;;1.73;;
32790;SDS011;19143;59.322;14.502;2023-04-03T00:04:33;4.43;;;1.57;;
32790;SDS011;19143;59.322;14.502;2023-04-03T00:07:00;3.60;;;1.40;;
32790;SDS011;19143;59.322;14.502;2023-04-03T00:09:26;1.83;;;1.53;;
32790;SDS011;19143;59.322;14.502;2023-04-03T00:11:53;5.00;;;1.40;;
32790;SDS011;19143;59.322;14.502;2023-04-03T00:14:20;2.50;;;1.40;;
32790;SDS011;19143;59.322;14.502;2023-04-03T00:16:47;4.00;;;1.63;;
32790;SDS011;19143;59.322;14.502;2023-04-03T00:19:13;2.70;;;1.53;;
32790;SDS011;19143;59.322;14.502;2023-04-03T00:21:41;1.63;;;1.50;;
32790;SDS011;19143;59.322;14.502;2023-04-03T00:24:08;1.70;;;1.30;;
32790;SDS011;19143;59.322;14.502;2023-04-03T00:26:34;2.67;;;1.40;;
32790;SDS011;19143;59.322;14.502;2023-04-03T00:29:01;4.17;;;1.20;;
32790;SDS011;19143;59.322;14.502;2023-04-03T00:31:27;2.70;;;1.40;;
32790;SDS011;19143;59.322;14.502;2023-04-03T00:33:54;3.80;;;1.20;;
32790;SDS011;19143;59.322;14.502;2023-04-03T00:36:21;1.83;;;1.20;;
32790;SDS011;19143;59.322;14.502;2023-04-03T00:38:49;2.00;;;1.10;;
32790;SDS011;19143;59.322;14.502;2023-04-03T00:41:16;0.97;;;0.97;;
32790;SDS011;19143;59.322;14.502;2023-04-03T00:43:43;2.87;;;1.40;;
32790;SDS011;19143;59.322;14.502;2023-04-03T00:46:10;1.10;;;1.10;;
32790;SDS011;19143;59.322;14.502;2023-04-03T00:48:37;1.57;;;1.30;;
32790;SDS011;19143;59.322;14.502;2023-04-03T00:51:06;3.03;;;1.07;;
32790;SDS011;19143;59.322;14.502;2023-04-03T00:53:34;3.37;;;1.50;;
32790;SDS011;19143;59.322;14.502;2023-04-03T00:56:03;4.57;;;1.27;;
32790;SDS011;19143;59.322;14.502;2023-04-03T00:58:32;4.10;;;1.87;;
32790;SDS011;19143;59.322;14.502;2023-04-03T01:01:00;3.13;;;1.30;;
32790;SDS011;19143;59.322;14.502;2023-04-03T01:03:29;4.73;;;1.40;;
32790;SDS011;19143;59.322;14.502;2023-04-03T01:05:56;7.70;;;1.50;;
32790;SDS011;19143;59.322;14.502;2023-04-03T01:08:23;3.30;;;1.43;;
32790;SDS011;19143;59.322;14.502;2023-04-03T01:10:50;1.90;;;1.50;;
32790;SDS011;19143;59.322;14.502;2023-04-03T01:13:19;12.37;;;2.20;;
32790;SDS011;19143;59.322;14.502;2023-04-03T01:15:46;9.40;;;1.50;;
32790;SDS011;19143;59.322;14.502;2023-04-03T01:18:13;1.17;;;1.07;;
32790;SDS011;19143;59.322;14.502;2023-04-03T01:20:47;1.07;;;1.07;;
32790;SDS011;19143;59.322;14.502;2023-04-03T01:23:19;5.27;;;1.60;;
32790;SDS011;19143;59.322;14.502;2023-04-03T01:25:50;11.67;;;1.37;;
32790;SDS011;19143;59.322;14.502;2023-04-03T01:28:19;1.60;;;1.00;;
32790;SDS011;19143;59.322;14.502;2023-04-03T01:30:46;5.13;;;1.20;;
32790;SDS011;19143;59.322;14.502;2023-04-03T01:33:16;1.17;;;1.00;;
32790;SDS011;19143;59.322;14.502;2023-04-03T01:35:43;0.80;;;0.80;;
32790;SDS011;19143;59.322;14.502;2023-04-03T01:38:10;1.30;;;1.20;;
32790;SDS011;19143;59.322;14.502;2023-04-03T01:40:36;3.00;;;1.33;;
32790;SDS011;19143;59.322;14.502;2023-04-03T01:43:10;9.90;;;1.57;;
32790;SDS011;19143;59.322;14.502;2023-04-03T01:45:36;6.73;;;1.60;;
32790;SDS011;19143;59.322;14.502;2023-04-03T01:48:03;1.60;;;1.50;;
32790;SDS011;19143;59.322;14.502;2023-04-03T01:50:31;3.53;;;1.40;;
32790;SDS011;19143;59.322;14.502;2023-04-03T01:52:58;1.70;;;1.10;;
32790;SDS011;19143;59.322;14.502;2023-04-03T01:55:24;27.73;;;8.80;;
32790;SDS011;19143;59.322;14.502;2023-04-03T01:57:51;22.70;;;7.23;;
32790;SDS011;19143;59.322;14.502;2023-04-03T02:00:18;12.93;;;5.67;;
32790;SDS011;19143;59.322;14.502;2023-04-03T02:02:46;11.47;;;5.53;;
32790;SDS011;19143;59.322;14.502;2023-04-03T02:05:12;14.93;;;6.10;;
32790;SDS011;19143;59.322;14.502;2023-04-03T02:07:41;5.77;;;3.30;;
32790;SDS011;19143;59.322;14.502;2023-04-03T02:10:07;5.77;;;2.33;;
32790;SDS011;19143;59.322;14.502;2023-04-03T02:12:34;8.83;;;3.27;;
32790;SDS011;19143;59.322;14.502;2023-04-03T02:15:01;3.97;;;2.27;;
32790;SDS011;19143;59.322;14.502;2023-04-03T02:17:28;6.13;;;2.17;;
32790;SDS011;19143;59.322;14.502;2023-04-03T02:19:54;3.90;;;2.00;;
32790;SDS011;19143;59.322;14.502;2023-04-03T02:22:21;4.07;;;2.50;;
32790;SDS011;19143;59.322;14.502;2023-04-03T02:24:49;9.03;;;2.60;;
32790;SDS011;19143;59.322;14.502;2023-04-03T02:27:16;8.43;;;3.93;;
32790;SDS011;19143;59.322;14.502;2023-04-03T02:29:43;5.40;;;3.70;;
32790;SDS011;19143;59.322;14.502;2023-04-03T02:32:10;7.80;;;2.87;;
32790;SDS011;19143;59.322;14.502;2023-04-03T02:34:36;9.70;;;3.57;;
32790;SDS011;19143;59.322;14.502;2023-04-03T02:37:03;6.33;;;3.80;;
32790;SDS011;19143;59.322;14.502;2023-04-03T02:39:30;10.80;;;6.03;;
32790;SDS011;19143;59.322;14.502;2023-04-03T02:41:58;12.67;;;6.43;;
32790;SDS011;19143;59.322;14.502;2023-04-03T02:44:26;26.00;;;9.50;;
32790;SDS011;19143;59.322;14.502;2023-04-03T02:46:53;25.30;;;8.53;;
32790;SDS011;19143;59.322;14.502;2023-04-03T02:49:20;9.80;;;4.60;;
32790;SDS011;19143;59.322;14.502;2023-04-03T02:51:46;6.90;;;3.83;;
32790;SDS011;19143;59.322;14.502;2023-04-03T02:54:13;7.10;;;2.57;;
32790;SDS011;19143;59.322;14.502;2023-04-03T02:56:40;4.50;;;3.30;;
32790;SDS011;19143;59.322;14.502;2023-04-03T02:59:08;7.87;;;3.50;;
32790;SDS011;19143;59.322;14.502;2023-04-03T03:01:35;8.03;;;4.10;;
32790;SDS011;19143;59.322;14.502;2023-04-03T03:04:01;16.53;;;2.80;;
32790;SDS011;19143;59.322;14.502;2023-04-03T03:06:28;2.33;;;2.03;;
32790;SDS011;19143;59.322;14.502;2023-04-03T03:08:55;4.67;;;2.20;;
32790;SDS011;19143;59.322;14.502;2023-04-03T03:11:21;17.97;;;2.40;;
32790;SDS011;19143;59.322;14.502;2023-04-03T03:13:48;31.07;;;2.67;;
32790;SDS011;19143;59.322;14.502;2023-04-03T03:16:16;9.93;;;2.03;;
32790;SDS011;19143;59.322;14.502;2023-04-03T03:18:43;5.40;;;1.50;;
32790;SDS011;19143;59.322;14.502;2023-04-03T03:21:09;2.07;;;1.87;;
32790;SDS011;19143;59.322;14.502;2023-04-03T03:23:36;2.60;;;1.80;;
32790;SDS011;19143;59.322;14.502;2023-04-03T03:26:04;4.03;;;2.30;;
32790;SDS011;19143;59.322;14.502;2023-04-03T03:28:31;13.73;;;4.23;;
32790;SDS011;19143;59.322;14.502;2023-04-03T03:30:58;7.60;;;3.40;;
32790;SDS011;19143;59.322;14.502;2023-04-03T03:33:26;11.87;;;4.43;;
32790;SDS011;19143;59.322;14.502;2023-04-03T03:35:53;6.90;;;3.13;;
32790;SDS011;19143;59.322;14.502;2023-04-03T03:38:20;11.73;;;3.90;;
32790;SDS011;19143;59.322;14.502;2023-04-03T03:40:46;23.87;;;3.37;;
32790;SDS011;19143;59.322;14.502;2023-04-03T03:43:13;6.70;;;2.97;;
32790;SDS011;19143;59.322;14.502;2023-04-03T03:45:40;3.40;;;1.63;;
32790;SDS011;19143;59.322;14.502;2023-04-03T03:48:06;7.50;;;1.93;;
32790;SDS011;19143;59.322;14.502;2023-04-03T03:50:34;9.20;;;1.70;;
32790;SDS011;19143;59.322;14.502;2023-04-03T03:53:01;9.17;;;2.20;;
32790;SDS011;19143;59.322;14.502;2023-04-03T03:55:27;15.83;;;2.27;;
32790;SDS011;19143;59.322;14.502;2023-04-03T03:57:54;4.77;;;1.90;;
32790;SDS011;19143;59.322;14.502;2023-04-03T04:00:21;2.00;;;1.30;;
32790;SDS011;19143;59.322;14.502;2023-04-03T04:02:47;1.57;;;1.47;;
32790;SDS011;19143;59.322;14.502;2023-04-03T04:05:14;1.83;;;1.30;;
32790;SDS011;19143;59.322;14.502;2023-04-03T04:07:42;6.87;;;1.47;;
32790;SDS011;19143;59.322;14.502;2023-04-03T04:10:09;2.10;;;1.40;;
32790;SDS011;19143;59.322;14.502;2023-04-03T04:12:36;4.97;;;1.00;;
32790;SDS011;19143;59.322;14.502;2023-04-03T04:15:03;8.87;;;1.27;;
32790;SDS011;19143;59.322;14.502;2023-04-03T04:17:29;4.47;;;1.27;;
32790;SDS011;19143;59.322;14.502;2023-04-03T04:19:56;4.40;;;1.47;;
32790;SDS011;19143;59.322;14.502;2023-04-03T04:22:23;2.43;;;1.50;;
32790;SDS011;19143;59.322;14.502;2023-04-03T04:24:51;4.90;;;1.30;;
32790;SDS011;19143;59.322;14.502;2023-04-03T04:27:17;6.10;;;1.57;;
32790;SDS011;19143;59.322;14.502;2023-04-03T04:29:44;1.60;;;1.50;;
32790;SDS011;19143;59.322;14.502;2023-04-03T04:32:11;5.50;;;1.47;;
32790;SDS011;19143;59.322;14.502;2023-04-03T04:34:38;5.50;;;1.37;;
32790;SDS011;19143;59.322;14.502;2023-04-03T04:37:04;1.50;;;1.40;;
32790;SDS011;19143;59.322;14.502;2023-04-03T04:39:31;1.23;;;1.03;;
32790;SDS011;19143;59.322;14.502;2023-04-03T04:41:59;1.87;;;1.20;;
32790;SDS011;19143;59.322;14.502;2023-04-03T04:44:26;2.53;;;1.07;;
32790;SDS011;19143;59.322;14.502;2023-04-03T04:46:53;6.10;;;1.53;;
32790;SDS011;19143;59.322;14.502;2023-04-03T04:49:19;28.83;;;2.43;;
32790;SDS011;19143;59.322;14.502;2023-04-03T04:51:46;40.10;;;3.73;;
32790;SDS011;19143;59.322;14.502;2023-04-03T04:54:13;2.17;;;1.60;;
32790;SDS011;19143;59.322;14.502;2023-04-03T04:56:39;6.73;;;2.00;;
32790;SDS011;19143;59.322;14.502;2023-04-03T04:59:08;28.07;;;2.13;;
32790;SDS011;19143;59.322;14.502;2023-04-03T05:01:34;34.17;;;2.00;;
32790;SDS011;19143;59.322;14.502;2023-04-03T05:04:01;20.90;;;2.57;;
32790;SDS011;19143;59.322;14.502;2023-04-03T05:06:28;35.13;;;2.50;;
32790;SDS011;19143;59.322;14.502;2023-04-03T05:08:55;30.33;;;2.63;;
32790;SDS011;19143;59.322;14.502;2023-04-03T05:11:22;27.07;;;3.20;;
32790;SDS011;19143;59.322;14.502;2023-04-03T05:13:48;20.67;;;2.70;;
32790;SDS011;19143;59.322;14.502;2023-04-03T05:16:17;7.77;;;2.20;;
32790;SDS011;19143;59.322;14.502;2023-04-03T05:18:43;1.53;;;1.43;;
32790;SDS011;19143;59.322;14.502;2023-04-03T05:21:10;9.50;;;1.77;;
32790;SDS011;19143;59.322;14.502;2023-04-03T05:23:36;22.17;;;2.20;;
32790;SDS011;19143;59.322;14.502;2023-04-03T05:26:03;7.10;;;1.90;;
32790;SDS011;19143;59.322;14.502;2023-04-03T05:28:30;14.30;;;2.07;;
32790;SDS011;19143;59.322;14.502;2023-04-03T05:30:58;5.07;;;1.53;;
32790;SDS011;19143;59.322;14.502;2023-04-03T05:33:27;6.03;;;2.27;;
32790;SDS011;19143;59.322;14.502;2023-04-03T05:35:53;19.57;;;2.17;;
32790;SDS011;19143;59.322;14.502;2023-04-03T05:38:20;15.90;;;2.13;;
32790;SDS011;19143;59.322;14.502;2023-04-03T05:40:47;4.37;;;1.70;;
32790;SDS011;19143;59.322;14.502;2023-04-03T05:43:14;6.13;;;1.83;;
32790;SDS011;19143;59.322;14.502;2023-04-03T05:45:41;15.43;;;2.00;;
32790;SDS011;19143;59.322;14.502;2023-04-03T05:48:07;9.07;;;1.93;;
32790;SDS011;19143;59.322;14.502;2023-04-03T05:50:36;9.13;;;1.80;;
32790;SDS011;19143;59.322;14.502;2023-04-03T05:53:06;9.70;;;1.80;;
32790;SDS011;19143;59.322;14.502;2023-04-03T05:55:33;3.23;;;1.40;;
32790;SDS011;19143;59.322;14.502;2023-04-03T05:58:00;7.30;;;1.70;;
32790;SDS011;19143;59.322;14.502;2023-04-03T06:00:27;8.70;;;1.37;;
32790;SDS011;19143;59.322;14.502;2023-04-03T06:02:54;33.60;;;2.63;;
32790;SDS011;19143;59.322;14.502;2023-04-03T06:05:20;6.13;;;1.60;;
32790;SDS011;19143;59.322;14.502;2023-04-03T06:07:49;13.27;;;1.77;;
32790;SDS011;19143;59.322;14.502;2023-04-03T06:10:15;3.50;;;1.27;;
32790;SDS011;19143;59.322;14.502;2023-04-03T06:12:42;7.53;;;1.67;;
32790;SDS011;19143;59.322;14.502;2023-04-03T06:15:09;8.90;;;1.63;;
32790;SDS011;19143;59.322;14.502;2023-04-03T06:17:36;14.33;;;1.53;;
32790;SDS011;19143;59.322;14.502;2023-04-03T06:20:04;11.87;;;1.97;;
32790;SDS011;19143;59.322;14.502;2023-04-03T06:22:31;18.27;;;1.63;;
32790;SDS011;19143;59.322;14.502;2023-04-03T06:24:59;25.23;;;3.20;;
32790;SDS011;19143;59.322;14.502;2023-04-03T06:27:26;10.40;;;2.33;;
32790;SDS011;19143;59.322;14.502;2023-04-03T06:29:52;4.70;;;1.73;;
32790;SDS011;19143;59.322;14.502;2023-04-03T06:32:20;9.07;;;2.30;;
32790;SDS011;19143;59.322;14.502;2023-04-03T06:34:46;21.47;;;2.47;;
32790;SDS011;19143;59.322;14.502;2023-04-03T06:37:14;10.30;;;1.77;;
32790;SDS011;19143;59.322;14.502;2023-04-03T06:39:41;34.27;;;2.20;;
32790;SDS011;19143;59.322;14.502;2023-04-03T06:42:09;17.10;;;1.53;;
32790;SDS011;19143;59.322;14.502;2023-04-03T06:44:36;6.77;;;1.33;;
32790;SDS011;19143;59.322;14.502;2023-04-03T06:47:02;38.83;;;2.40;;
32790;SDS011;19143;59.322;14.502;2023-04-03T06:49:29;3.23;;;1.40;;
32790;SDS011;19143;59.322;14.502;2023-04-03T06:51:56;4.63;;;1.40;;
32790;SDS011;19143;59.322;14.502;2023-04-03T06:54:23;26.47;;;2.20;;
32790;SDS011;19143;59.322;14.502;2023-04-03T06:56:49;12.37;;;1.53;;
32790;SDS011;19143;59.322;14.502;2023-04-03T06:59:17;24.13;;;2.17;;
32790;SDS011;19143;59.322;14.502;2023-04-03T07:01:44;8.77;;;1.83;;
32790;SDS011;19143;59.322;14.502;2023-04-03T07:04:11;5.97;;;1.43;;
32790;SDS011;19143;59.322;14.502;2023-04-03T07:06:38;7.00;;;1.73;;
32790;SDS011;19143;59.322;14.502;2023-04-03T07:09:04;4.70;;;1.97;;
32790;SDS011;19143;59.322;14.502;2023-04-03T07:11:32;3.60;;;1.63;;
32790;SDS011;19143;59.322;14.502;2023-04-03T07:13:59;11.47;;;1.50;;
32790;SDS011;19143;59.322;14.502;2023-04-03T07:16:27;4.83;;;1.40;;
32790;SDS011;19143;59.322;14.502;2023-04-03T07:18:56;9.33;;;2.00;;
32790;SDS011;19143;59.322;14.502;2023-04-03T07:21:23;10.37;;;1.70;;
32790;SDS011;19143;59.322;14.502;2023-04-03T07:23:50;17.50;;;1.90;;
32790;SDS011;19143;59.322;14.502;2023-04-03T07:26:17;10.00;;;1.30;;
32790;SDS011;19143;59.322;14.502;2023-04-03T07:28:45;5.83;;;1.20;;
32790;SDS011;19143;59.322;14.502;2023-04-03T07:31:13;6.40;;;1.47;;
32790;SDS011;19143;59.322;14.502;2023-04-03T07:33:42;6.90;;;1.20;;
32790;SDS011;19143;59.322;14.502;2023-04-03T07:36:09;2.47;;;1.20;;
32790;SDS011;19143;59.322;14.502;2023-04-03T07:38:36;4.23;;;1.13;;
32790;SDS011;19143;59.322;14.502;2023-04-03T07:41:03;6.20;;;1.60;;
32790;SDS011;19143;59.322;14.502;2023-04-03T07:43:30;19.47;;;1.90;;
32790;SDS011;19143;59.322;14.502;2023-04-03T07:45:57;7.13;;;1.60;;
32790;SDS011;19143;59.322;14.502;2023-04-03T07:48:24;2.73;;;1.27;;
32790;SDS011;19143;59.322;14.502;2023-04-03T07:50:53;12.23;;;1.30;;
32790;SDS011;19143;59.322;14.502;2023-04-03T07:53:20;7.03;;;0.77;;
32790;SDS011;19143;59.322;14.502;2023-04-03T07:55:46;7.83;;;1.60;;
32790;SDS011;19143;59.322;14.502;2023-04-03T07:58:14;11.17;;;1.97;;
32790;SDS011;19143;59.322;14.502;2023-04-03T08:00:41;4.10;;;1.37;;
32790;SDS011;19143;59.322;14.502;2023-04-03T08:03:09;1.40;;;0.93;;
32790;SDS011;19143;59.322;14.502;2023-04-03T08:05:36;6.50;;;1.67;;
32790;SDS011;19143;59.322;14.502;2023-04-03T08:08:05;3.03;;;1.13;;
32790;SDS011;19143;59.322;14.502;2023-04-03T08:10:32;6.50;;;1.60;;
32790;SDS011;19143;59.322;14.502;2023-04-03T08:12:59;24.37;;;2.23;;
32790;SDS011;19143;59.322;14.502;2023-04-03T08:15:26;5.53;;;1.63;;
32790;SDS011;19143;59.322;14.502;2023-04-03T08:17:53;4.37;;;1.40;;
32790;SDS011;19143;59.322;14.502;2023-04-03T08:20:19;3.97;;;1.30;;
32790;SDS011;19143;59.322;14.502;2023-04-03T08:22:46;11.70;;;1.53;;
32790;SDS011;19143;59.322;14.502;2023-04-03T08:25:14;1.83;;;1.23;;
32790;SDS011;19143;59.322;14.502;2023-04-03T08:27:42;3.73;;;1.50;;
32790;SDS011;19143;59.322;14.502;2023-04-03T08:30:09;8.10;;;1.20;;
32790;SDS011;19143;59.322;14.502;2023-04-03T08:32:36;6.67;;;1.10;;
32790;SDS011;19143;59.322;14.502;2023-04-03T08:35:03;14.17;;;1.30;;
32790;SDS011;19143;59.322;14.502;2023-04-03T08:37:30;10.80;;;1.50;;
32790;SDS011;19143;59.322;14.502;2023-04-03T08:39:57;7.87;;;1.50;;
32790;SDS011;19143;59.322;14.502;2023-04-03T08:42:30;23.33;;;1.63;;
32790;SDS011;19143;59.322;14.502;2023-04-03T08:45:02;4.23;;;1.00;;
32790;SDS011;19143;59.322;14.502;2023-04-03T08:47:37;23.57;;;2.13;;
32790;SDS011;19143;59.322;14.502;2023-04-03T08:50:04;13.93;;;1.77;;
32790;SDS011;19143;59.322;14.502;2023-04-03T08:52:34;7.30;;;1.40;;
32790;SDS011;19143;59.322;14.502;2023-04-03T08:55:02;8.43;;;1.13;;
32790;SDS011;19143;59.322;14.502;2023-04-03T08:57:39;7.80;;;1.50;;
32790;SDS011;19143;59.322;14.502;2023-04-03T09:00:12;6.10;;;1.20;;
32790;SDS011;19143;59.322;14.502;2023-04-03T09:02:41;4.47;;;1.10;;
32790;SDS011;19143;59.322;14.502;2023-04-03T09:05:11;4.20;;;1.07;;
32790;SDS011;19143;59.322;14.502;2023-04-03T09:07:39;3.30;;;1.10;;
32790;SDS011;19143;59.322;14.502;2023-04-03T09:10:08;1.93;;;0.97;;
32790;SDS011;19143;59.322;14.502;2023-04-03T09:12:39;5.67;;;1.20;;
32790;SDS011;19143;59.322;14.502;2023-04-03T09:15:10;1.67;;;0.97;;
32790;SDS011;19143;59.322;14.502;2023-04-03T09:17:41;4.10;;;1.37;;
32790;SDS011;19143;59.322;14.502;2023-04-03T09:20:16;5.00;;;1.20;;
32790;SDS011;19143;59.322;14.502;2023-04-03T09:22:45;12.47;;;1.33;;
32790;SDS011;19143;59.322;14.502;2023-04-03T09:25:12;6.23;;;1.23;;
32790;SDS011;19143;59.322;14.502;2023-04-03T09:27:40;7.43;;;1.30;;
32790;SDS011;19143;59.322;14.502;2023-04-03T09:30:11;4.43;;;1.23;;
32790;SDS011;19143;59.322;14.502;2023-04-03T09:32:38;7.53;;;0.97;;
32790;SDS011;19143;59.322;14.502;2023-04-03T09:35:10;1.17;;;1.07;;
32790;SDS011;19143;59.322;14.502;2023-04-03T09:37:43;7.20;;;1.20;;
32790;SDS011;19143;59.322;14.502;2023-04-03T09:40:27;4.70;;;1.07;;
32790;SDS011;19143;59.322;14.502;2023-04-03T09:42:56;5.63;;;1.60;;
32790;SDS011;19143;59.322;14.502;2023-04-03T09:45:24;1.50;;;1.10;;
32790;SDS011;19143;59.322;14.502;2023-04-03T09:47:57;2.83;;;1.20;;
32790;SDS011;19143;59.322;14.502;2023-04-03T09:50:30;8.83;;;1.47;;
32790;SDS011;19143;59.322;14.502;2023-04-03T09:52:56;16.60;;;1.53;;
32790;SDS011;19143;59.322;14.502;2023-04-03T09:55:24;16.97;;;1.53;;
32790;SDS011;19143;59.322;14.502;2023-04-03T09:57:57;7.60;;;1.20;;
32790;SDS011;19143;59.322;14.502;2023-04-03T10:00:25;1.77;;;0.77;;
32790;SDS011;19143;59.322;14.502;2023-04-03T10:02:53;3.90;;;0.90;;
32790;SDS011;19143;59.322;14.502;2023-04-03T10:05:25;1.00;;;0.90;;
32790;SDS011;19143;59.322;14.502;2023-04-03T10:07:52;5.50;;;0.80;;
32790;SDS011;19143;59.322;14.502;2023-04-03T10:10:33;9.20;;;1.17;;
32790;SDS011;19143;59.322;14.502;2023-04-03T10:13:09;1.60;;;0.70;;
32790;SDS011;19143;59.322;14.502;2023-04-03T10:15:42;3.30;;;0.90;;
32790;SDS011;19143;59.322;14.502;2023-04-03T10:18:15;1.37;;;0.73;;
32790;SDS011;19143;59.322;14.502;2023-04-03T10:20:47;1.43;;;0.83;;
32790;SDS011;19143;59.322;14.502;2023-04-03T10:23:17;1.17;;;1.17;;
32790;SDS011;19143;59.322;14.502;2023-04-03T10:25:47;4.93;;;0.87;;
32790;SDS011;19143;59.322;14.502;2023-04-03T10:28:18;3.87;;;0.70;;
32790;SDS011;19143;59.322;14.502;2023-04-03T10:30:47;4.97;;;0.97;;
32790;SDS011;19143;59.322;14.502;2023-04-03T10:33:20;1.90;;;0.80;;
32790;SDS011;19143;59.322;14.502;2023-04-03T10:35:49;4.13;;;0.50;;
32790;SDS011;19143;59.322;14.502;2023-04-03T10:38:19;8.30;;;0.90;;
32790;SDS011;19143;59.322;14.502;2023-04-03T10:40:51;3.00;;;0.67;;
32790;SDS011;19143;59.322;14.502;2023-04-03T10:43:23;1.70;;;1.00;;
32790;SDS011;19143;59.322;14.502;2023-04-03T10:45:53;3.47;;;0.80;;
32790;SDS011;19143;59.322;14.502;2023-04-03T10:48:26;3.13;;;0.93;;
32790;SDS011;19143;59.322;14.502;2023-04-03T10:51:00;0.97;;;0.77;;
32790;SDS011;19143;59.322;14.502;2023-04-03T10:53:29;0.73;;;0.73;;
32790;SDS011;19143;59.322;14.502;2023-04-03T10:56:00;3.70;;;0.87;;
32790;SDS011;19143;59.322;14.502;2023-04-03T10:58:31;1.03;;;0.90;;
32790;SDS011;19143;59.322;14.502;2023-04-03T11:00:59;1.73;;;0.90;;
32790;SDS011;19143;59.322;14.502;2023-04-03T11:03:29;0.83;;;0.70;;
32790;SDS011;19143;59.322;14.502;2023-04-03T11:05:57;0.67;;;0.63;;
32790;SDS011;19143;59.322;14.502;2023-04-03T11:08:26;3.80;;;0.60;;
32790;SDS011;19143;59.322;14.502;2023-04-03T11:10:54;0.73;;;0.67;;
32790;SDS011;19143;59.322;14.502;2023-04-03T11:13:23;1.47;;;0.87;;
32790;SDS011;19143;59.322;14.502;2023-04-03T11:15:53;3.20;;;0.80;;
32790;SDS011;19143;59.322;14.502;2023-04-03T11:18:21;1.07;;;0.80;;
32790;SDS011;19143;59.322;14.502;2023-04-03T11:20:53;3.97;;;0.97;;
32790;SDS011;19143;59.322;14.502;2023-04-03T11:23:25;16.17;;;1.33;;
32790;SDS011;19143;59.322;14.502;2023-04-03T11:25:53;0.87;;;0.83;;
32790;SDS011;19143;59.322;14.502;2023-04-03T11:28:20;3.57;;;0.80;;
32790;SDS011;19143;59.322;14.502;2023-04-03T11:30:47;0.67;;;0.60;;
32790;SDS011;19143;59.322;14.502;2023-04-03T11:36:02;5.93;;;1.63;;
32790;SDS011;19143;59.322;14.502;2023-04-03T11:38:30;6.17;;;0.90;;
32790;SDS011;19143;59.322;14.502;2023-04-03T11:41:01;1.07;;;0.80;;
32790;SDS011;19143;59.322;14.502;2023-04-03T11:43:29;0.83;;;0.80;;
32790;SDS011;19143;59.322;14.502;2023-04-03T11:45:57;0.83;;;0.60;;
32790;SDS011;19143;59.322;14.502;2023-04-03T11:48:42;2.20;;;0.60;;
32790;SDS011;19143;59.322;14.502;2023-04-03T11:53:52;0.87;;;0.53;;
32790;SDS011;19143;59.322;14.502;2023-04-03T11:56:29;7.93;;;1.00;;
32790;SDS011;19143;59.322;14.502;2023-04-03T12:01:48;2.43;;;0.90;;
32790;SDS011;19143;59.322;14.502;2023-04-03T12:04:15;4.33;;;1.00;;
32790;SDS011;19143;59.322;14.502;2023-04-03T12:06:49;1.97;;;0.97;;
32790;SDS011;19143;59.322;14.502;2023-04-03T12:09:24;1.33;;;0.53;;
32790;SDS011;19143;59.322;14.502;2023-04-03T12:11:51;1.30;;;0.53;;
32790;SDS011;19143;59.322;14.502;2023-04-03T12:14:17;3.87;;;1.07;;
32790;SDS011;19143;59.322;14.502;2023-04-03T12:16:45;1.20;;;0.73;;
32790;SDS011;19143;59.322;14.502;2023-04-03T12:19:32;13.57;;;1.70;;
32790;SDS011;19143;59.322;14.502;2023-04-03T12:22:06;1.87;;;0.70;;
32790;SDS011;19143;59.322;14.502;2023-04-03T12:24:41;2.77;;;0.73;;
32790;SDS011;19143;59.322;14.502;2023-04-03T12:27:20;1.23;;;0.70;;
32790;SDS011;19143;59.322;14.502;2023-04-03T12:29:50;5.80;;;1.00;;
32790;SDS011;19143;59.322;14.502;2023-04-03T12:32:22;0.57;;;0.40;;
32790;SDS011;19143;59.322;14.502;2023-04-03T12:34:56;2.67;;;1.00;;
32790;SDS011;19143;59.322;14.502;2023-04-03T12:37:38;4.37;;;0.60;;
32790;SDS011;19143;59.322;14.502;2023-04-03T12:40:14;0.93;;;0.73;;
32790;SDS011;19143;59.322;14.502;2023-04-03T12:42:53;1.63;;;0.60;;
32790;SDS011;19143;59.322;14.502;2023-04-03T12:45:23;12.03;;;1.00;;
32790;SDS011;19143;59.322;14.502;2023-04-03T12:47:51;3.30;;;0.60;;
32790;SDS011;19143;59.322;14.502;2023-04-03T12:50:20;0.53;;;0.53;;
32790;SDS011;19143;59.322;14.502;2023-04-03T12:52:49;1.13;;;0.53;;
32790;SDS011;19143;59.322;14.502;2023-04-03T12:55:19;1.17;;;0.70;;
32790;SDS011;19143;59.322;14.502;2023-04-03T12:57:46;0.70;;;0.70;;
32790;SDS011;19143;59.322;14.502;2023-04-03T13:00:20;0.70;;;0.70;;
32790;SDS011;19143;59.322;14.502;2023-04-03T13:02:47;0.70;;;0.60;;
32790;SDS011;19143;59.322;14.502;2023-04-03T13:05:22;4.90;;;0.60;;
32790;SDS011;19143;59.322;14.502;2023-04-03T13:07:49;3.40;;;0.77;;
32790;SDS011;19143;59.322;14.502;2023-04-03T13:10:21;0.87;;;0.87;;
32790;SDS011;19143;59.322;14.502;2023-04-03T13:12:49;1.40;;;0.60;;
32790;SDS011;19143;59.322;14.502;2023-04-03T13:15:17;0.67;;;0.67;;
32790;SDS011;19143;59.322;14.502;2023-04-03T13:17:44;7.00;;;1.17;;
32790;SDS011;19143;59.322;14.502;2023-04-03T13:20:14;1.07;;;0.90;;
32790;SDS011;19143;59.322;14.502;2023-04-03T13:22:43;5.30;;;1.07;;
32790;SDS011;19143;59.322;14.502;2023-04-03T13:25:13;1.03;;;0.90;;
32790;SDS011;19143;59.322;14.502;2023-04-03T13:27:43;7.83;;;0.60;;
32790;SDS011;19143;59.322;14.502;2023-04-03T13:30:20;3.30;;;0.70;;
32790;SDS011;19143;59.322;14.502;2023-04-03T13:32:47;0.77;;;0.63;;
32790;SDS011;19143;59.322;14.502;2023-04-03T13:35:24;7.27;;;2.03;;
32790;SDS011;19143;59.322;14.502;2023-04-03T13:37:54;6.93;;;1.00;;
32790;SDS011;19143;59.322;14.502;2023-04-03T13:40:21;3.70;;;0.60;;
32790;SDS011;19143;59.322;14.502;2023-04-03T13:42:57;0.70;;;0.70;;
32790;SDS011;19143;59.322;14.502;2023-04-03T13:45:25;1.67;;;1.10;;
32790;SDS011;19143;59.322;14.502;2023-04-03T13:47:54;2.00;;;0.73;;
32790;SDS011;19143;59.322;14.502;2023-04-03T13:50:32;6.50;;;0.73;;
32790;SDS011;19143;59.322;14.502;2023-04-03T13:53:00;0.77;;;0.77;;
32790;SDS011;19143;59.322;14.502;2023-04-03T13:55:28;2.53;;;1.00;;
32790;SDS011;19143;59.322;14.502;2023-04-03T13:58:16;8.00;;;1.00;;
32790;SDS011;19143;59.322;14.502;2023-04-03T14:00:47;3.90;;;0.90;;
32790;SDS011;19143;59.322;14.502;2023-04-03T14:03:16;5.93;;;1.30;;
32790;SDS011;19143;59.322;14.502;2023-04-03T14:05:45;5.53;;;1.03;;
32790;SDS011;19143;59.322;14.502;2023-04-03T14:08:11;0.80;;;0.80;;
32790;SDS011;19143;59.322;14.502;2023-04-03T14:10:38;16.90;;;1.77;;
32790;SDS011;19143;59.322;14.502;2023-04-03T14:13:08;3.40;;;1.00;;
32790;SDS011;19143;59.322;14.502;2023-04-03T14:15:35;2.00;;;0.87;;
32790;SDS011;19143;59.322;14.502;2023-04-03T14:18:01;1.77;;;1.20;;
32790;SDS011;19143;59.322;14.502;2023-04-03T14:20:28;1.23;;;0.80;;
32790;SDS011;19143;59.322;14.502;2023-04-03T14:22:54;3.83;;;1.07;;
32790;SDS011;19143;59.322;14.502;2023-04-03T14:25:22;2.17;;;1.10;;
32790;SDS011;19143;59.322;14.502;2023-04-03T14:27:51;5.60;;;1.00;;
32790;SDS011;19143;59.322;14.502;2023-04-03T14:30:21;6.13;;;1.10;;
32790;SDS011;19143;59.322;14.502;2023-04-03T14:32:48;8.17;;;1.03;;
32790;SDS011;19143;59.322;14.502;2023-04-03T14:35:16;2.33;;;1.03;;
32790;SDS011;19143;59.322;14.502;2023-04-03T14:37:44;3.67;;;1.13;;
32790;SDS011;19143;59.322;14.502;2023-04-03T14:40:12;1.43;;;0.80;;
32790;SDS011;19143;59.322;14.502;2023-04-03T14:42:39;2.93;;;0.80;;
32790;SDS011;19143;59.322;14.502;2023-04-03T14:45:07;6.40;;;1.00;;
32790;SDS011;19143;59.322;14.502;2023-04-03T14:47:36;3.17;;;1.27;;